createdAt,value
2024-01-18T00:00:03.568Z,2.64
2024-01-18T00:01:02.648Z,2.66
2024-01-18T00:02:02.404Z,2.65
2024-01-18T00:03:02.584Z,2.64
2024-01-18T00:04:02.520Z,2.65
2024-01-18T00:05:02.513Z,2.68
2024-01-18T00:06:02.638Z,2.70
2024-01-18T00:07:02.582Z,2.71
2024-01-18T00:08:02.479Z,2.73
2024-01-18T00:09:05.012Z,2.74
2024-01-18T00:10:02.506Z,2.75
2024-01-18T00:11:02.571Z,2.75
2024-01-18T00:12:02.445Z,2.76
2024-01-18T00:13:04.562Z,2.77
2024-01-18T00:14:02.368Z,2.77
2024-01-18T00:15:02.485Z,2.75
2024-01-18T00:16:02.388Z,2.74
2024-01-18T00:17:02.563Z,2.74
2024-01-18T00:18:02.370Z,2.73
2024-01-18T00:19:02.503Z,2.73
2024-01-18T00:20:02.549Z,2.74
2024-01-18T00:21:02.361Z,2.73
2024-01-18T00:22:02.243Z,2.72
2024-01-18T00:23:02.223Z,2.68
2024-01-18T00:24:02.210Z,2.66
2024-01-18T00:25:02.200Z,2.63
2024-01-18T00:26:02.262Z,2.62
2024-01-18T00:27:02.235Z,2.61
2024-01-18T00:28:10.066Z,2.58
2024-01-18T00:29:05.476Z,2.56
2024-01-18T00:30:02.862Z,2.54
2024-01-18T00:31:02.293Z,2.51
2024-01-18T00:32:02.362Z,2.50
2024-01-18T00:33:02.774Z,2.49
2024-01-18T00:34:02.959Z,2.48
2024-01-18T00:35:03.499Z,2.47
2024-01-18T00:36:04.867Z,2.47
2024-01-18T00:37:02.416Z,2.48
2024-01-18T00:38:03.701Z,2.49
2024-01-18T00:39:02.124Z,2.50
2024-01-18T00:40:02.055Z,2.53
2024-01-18T00:41:02.920Z,2.55
2024-01-18T00:42:02.226Z,2.56
2024-01-18T00:43:04.155Z,2.53
2024-01-18T00:44:01.929Z,2.51
2024-01-18T00:45:01.947Z,2.51
2024-01-18T00:46:03.019Z,2.52
2024-01-18T00:47:01.877Z,2.56
2024-01-18T00:48:02.151Z,2.60
2024-01-18T00:49:01.975Z,2.63
2024-01-18T00:50:01.886Z,2.66
2024-01-18T00:51:02.646Z,2.71
2024-01-18T00:52:02.926Z,2.74
2024-01-18T00:53:01.861Z,2.76
2024-01-18T00:54:01.992Z,2.77
2024-01-18T00:55:01.970Z,2.78
2024-01-18T00:56:01.909Z,2.81
2024-01-18T00:57:01.811Z,2.85
2024-01-18T00:58:02.142Z,2.87
2024-01-18T00:59:01.796Z,2.89
2024-01-18T01:00:02.133Z,2.90
2024-01-18T01:01:01.919Z,2.90
2024-01-18T01:02:01.927Z,2.92
2024-01-18T01:03:01.883Z,2.94
2024-01-18T01:04:02.056Z,2.95
2024-01-18T01:05:01.879Z,2.95
2024-01-18T01:06:01.802Z,2.95
2024-01-18T01:07:01.622Z,2.93
2024-01-18T01:08:01.834Z,2.93
2024-01-18T01:09:01.802Z,2.93
2024-01-18T01:10:01.797Z,2.93
2024-01-18T01:11:01.674Z,2.93
2024-01-18T01:12:01.812Z,2.91
2024-01-18T01:13:01.658Z,2.88
2024-01-18T01:14:01.668Z,2.85
2024-01-18T01:15:01.756Z,2.84
2024-01-18T01:16:01.954Z,2.83
2024-01-18T01:17:01.699Z,2.83
2024-01-18T01:18:01.612Z,2.83
2024-01-18T01:19:01.615Z,2.84
2024-01-18T01:20:05.618Z,2.84
2024-01-18T01:21:02.369Z,2.84
2024-01-18T01:22:03.382Z,2.85
2024-01-18T01:23:01.286Z,2.86
2024-01-18T01:24:22.356Z,2.85
2024-01-18T01:25:01.250Z,2.86
2024-01-18T01:26:01.365Z,2.86
2024-01-18T01:27:01.364Z,2.87
2024-01-18T01:28:01.534Z,2.88
2024-01-18T01:29:01.249Z,2.87
2024-01-18T01:30:01.432Z,2.83
2024-01-18T01:31:01.206Z,2.80
2024-01-18T01:32:01.268Z,2.75
2024-01-18T01:33:01.308Z,2.71
2024-01-18T01:34:01.191Z,2.68
2024-01-18T01:35:01.127Z,2.65
2024-01-18T01:36:01.209Z,2.63
2024-01-18T01:37:01.109Z,2.62
2024-01-18T01:38:01.203Z,2.61
2024-01-18T01:39:01.174Z,2.61
2024-01-18T01:40:01.130Z,2.64
2024-01-18T01:41:01.065Z,2.68
2024-01-18T01:42:01.166Z,2.70
2024-01-18T01:43:01.017Z,2.70
2024-01-18T01:44:01.051Z,2.67
2024-01-18T01:45:01.070Z,2.64
2024-01-18T01:46:01.040Z,2.61
2024-01-18T01:47:00.956Z,2.59
2024-01-18T01:48:01.146Z,2.56
2024-01-18T01:49:01.020Z,2.53
2024-01-18T01:50:00.975Z,2.52
2024-01-18T01:51:00.951Z,2.53
2024-01-18T01:52:02.013Z,2.55
2024-01-18T01:53:00.886Z,2.57
2024-01-18T01:54:00.955Z,2.58
2024-01-18T01:55:00.855Z,2.56
2024-01-18T01:56:00.957Z,2.58
2024-01-18T01:57:00.899Z,2.60
2024-01-18T01:58:00.931Z,2.63
2024-01-18T01:59:00.800Z,2.69
2024-01-18T02:00:00.911Z,2.74
2024-01-18T02:01:00.858Z,2.79
2024-01-18T02:02:00.883Z,2.84
2024-01-18T02:03:00.797Z,2.86
2024-01-18T02:04:00.834Z,2.87
2024-01-18T02:05:00.783Z,2.86
2024-01-18T02:06:01.006Z,2.83
2024-01-18T02:07:00.782Z,2.79
2024-01-18T02:08:00.807Z,2.73
2024-01-18T02:09:00.826Z,2.67
2024-01-18T02:10:00.811Z,2.62
2024-01-18T02:11:00.655Z,2.58
2024-01-18T02:12:00.755Z,2.56
2024-01-18T02:13:00.654Z,2.54
2024-01-18T02:14:00.628Z,2.52
2024-01-18T02:15:00.762Z,2.49
2024-01-18T02:16:00.743Z,2.47
2024-01-18T02:17:00.558Z,2.44
2024-01-18T02:18:00.713Z,2.41
2024-01-18T02:19:00.648Z,2.41
2024-01-18T02:20:00.659Z,2.41
2024-01-18T02:21:00.563Z,2.41
2024-01-18T02:22:00.628Z,2.40
2024-01-18T02:23:00.485Z,2.38
2024-01-18T02:24:00.541Z,2.36
2024-01-18T02:25:00.515Z,2.34
2024-01-18T02:26:00.537Z,2.33
2024-01-18T02:27:00.514Z,2.32
2024-01-18T02:28:00.539Z,2.33
2024-01-18T02:29:00.408Z,2.34
2024-01-18T02:30:00.609Z,2.36
2024-01-18T02:31:00.386Z,2.38
2024-01-18T02:32:00.489Z,2.39
2024-01-18T02:33:00.490Z,2.38
2024-01-18T02:34:02.578Z,2.37
2024-01-18T02:35:00.331Z,2.35
2024-01-18T02:36:21.451Z,2.35
2024-01-18T02:37:00.299Z,2.38
2024-01-18T02:38:00.395Z,2.41
2024-01-18T02:39:00.314Z,2.48
2024-01-18T02:40:00.319Z,2.54
2024-01-18T02:41:00.257Z,2.60
2024-01-18T02:42:00.351Z,2.64
2024-01-18T02:43:00.230Z,2.67
2024-01-18T02:44:00.238Z,2.68
2024-01-18T02:45:00.289Z,2.68
2024-01-18T02:46:00.240Z,2.67
2024-01-18T02:47:00.163Z,2.64
2024-01-18T02:48:00.390Z,2.61
2024-01-18T02:49:00.174Z,2.55
2024-01-18T02:50:00.475Z,2.49
2024-01-18T02:51:00.212Z,2.45
2024-01-18T02:52:00.197Z,2.40
2024-01-18T02:53:00.091Z,2.37
2024-01-18T02:54:00.168Z,2.36
2024-01-18T02:55:00.069Z,2.35
2024-01-18T02:56:00.225Z,2.34
2024-01-18T02:57:00.092Z,2.33
2024-01-18T02:58:00.133Z,2.33
2024-01-18T02:59:00.019Z,2.33
2024-01-18T03:00:00.077Z,2.32
2024-01-18T03:01:00.005Z,2.30
2024-01-18T03:02:00.084Z,2.28
2024-01-18T03:03:00.007Z,2.28
2024-01-18T03:04:00.157Z,2.28
2024-01-18T03:04:59.927Z,2.29
2024-01-18T03:06:00.076Z,2.30
2024-01-18T03:06:59.931Z,2.31
2024-01-18T03:08:00.017Z,2.31
2024-01-18T03:08:59.917Z,2.30
2024-01-18T03:09:59.909Z,2.30
2024-01-18T03:10:59.873Z,2.29
2024-01-18T03:11:59.959Z,2.28
2024-01-18T03:12:59.831Z,2.26
2024-01-18T03:13:59.839Z,2.25
2024-01-18T03:14:59.837Z,2.23
2024-01-18T03:16:01.941Z,2.22
2024-01-18T03:16:59.766Z,2.23
2024-01-18T03:17:59.941Z,2.24
2024-01-18T03:18:59.902Z,2.23
2024-01-18T03:19:59.811Z,2.22
2024-01-18T03:20:59.805Z,2.24
2024-01-18T03:21:59.794Z,2.24
2024-01-18T03:22:59.714Z,2.25
2024-01-18T03:23:59.749Z,2.24
2024-01-18T03:24:59.675Z,2.25
2024-01-18T03:25:59.722Z,2.25
2024-01-18T03:26:59.683Z,2.27
2024-01-18T03:27:59.747Z,2.29
2024-01-18T03:28:59.649Z,2.32
2024-01-18T03:29:59.672Z,2.35
2024-01-18T03:30:59.590Z,2.37
2024-01-18T03:31:59.716Z,2.38
2024-01-18T03:32:59.679Z,2.39
2024-01-18T03:33:59.686Z,2.40
2024-01-18T03:34:59.530Z,2.41
2024-01-18T03:35:59.612Z,2.42
2024-01-18T03:36:59.518Z,2.42
2024-01-18T03:37:59.615Z,2.42
2024-01-18T03:38:59.533Z,2.43
2024-01-18T03:39:59.516Z,2.43
2024-01-18T03:40:59.450Z,2.43
2024-01-18T03:41:59.653Z,2.44
2024-01-18T03:42:59.488Z,2.44
2024-01-18T03:43:59.459Z,2.44
2024-01-18T03:44:59.634Z,2.44
2024-01-18T03:45:59.458Z,2.42
2024-01-18T03:46:59.445Z,2.40
2024-01-18T03:47:59.609Z,2.40
2024-01-18T03:48:59.421Z,2.41
2024-01-18T03:49:59.491Z,2.41
2024-01-18T03:50:59.380Z,2.42
2024-01-18T03:51:59.529Z,2.43
2024-01-18T03:52:59.316Z,2.44
2024-01-18T03:53:59.373Z,2.44
2024-01-18T03:54:59.280Z,2.44
2024-01-18T03:55:59.327Z,2.43
2024-01-18T03:56:59.298Z,2.41
2024-01-18T03:57:59.351Z,2.39
2024-01-18T03:58:59.235Z,2.36
2024-01-18T03:59:59.297Z,2.34
2024-01-18T04:00:59.386Z,2.32
2024-01-18T04:01:59.268Z,2.31
2024-01-18T04:02:59.303Z,2.29
2024-01-18T04:03:59.293Z,2.28
2024-01-18T04:04:59.156Z,2.26
2024-01-18T04:05:59.290Z,2.25
2024-01-18T04:06:59.163Z,2.24
2024-01-18T04:07:59.209Z,2.23
2024-01-18T04:08:59.167Z,2.22
2024-01-18T04:09:59.125Z,2.20
2024-01-18T04:10:59.071Z,2.18
2024-01-18T04:11:59.272Z,2.17
2024-01-18T04:12:59.057Z,2.15
2024-01-18T04:13:59.053Z,2.14
2024-01-18T04:14:59.168Z,2.13
2024-01-18T04:15:59.074Z,2.13
2024-01-18T04:16:59.002Z,2.13
2024-01-18T04:17:59.169Z,2.13
2024-01-18T04:18:59.195Z,2.14
2024-01-18T04:19:58.996Z,2.14
2024-01-18T04:20:58.993Z,2.16
2024-01-18T04:21:59.008Z,2.14
2024-01-18T04:22:58.899Z,2.12
2024-01-18T04:23:58.946Z,2.09
2024-01-18T04:24:58.888Z,2.05
2024-01-18T04:26:00.105Z,2.01
2024-01-18T04:26:58.896Z,1.98
2024-01-18T04:27:59.064Z,1.97
2024-01-18T04:28:58.825Z,1.97
2024-01-18T04:29:58.902Z,1.98
2024-01-18T04:30:58.797Z,1.99
2024-01-18T04:31:58.888Z,2.00
2024-01-18T04:32:58.869Z,2.01
2024-01-18T04:33:58.836Z,2.01
2024-01-18T04:34:58.779Z,2.01
2024-01-18T04:35:58.846Z,2.00
2024-01-18T04:36:58.734Z,2.01
2024-01-18T04:37:58.825Z,2.01
2024-01-18T04:38:58.783Z,2.02
2024-01-18T04:39:58.733Z,2.02
2024-01-18T04:40:58.682Z,2.01
2024-01-18T04:41:58.773Z,1.99
2024-01-18T04:42:58.643Z,1.97
2024-01-18T04:43:58.659Z,1.95
2024-01-18T04:44:58.685Z,1.94
2024-01-18T04:45:58.675Z,1.94
2024-01-18T04:46:58.737Z,1.94
2024-01-18T04:47:58.777Z,1.95
2024-01-18T04:48:58.752Z,1.95
2024-01-18T04:49:58.684Z,1.94
2024-01-18T04:50:58.608Z,1.94
2024-01-18T04:51:58.620Z,1.94
2024-01-18T04:53:01.093Z,1.93
2024-01-18T04:53:58.542Z,1.92
2024-01-18T04:54:58.501Z,1.92
2024-01-18T04:55:58.536Z,1.91
2024-01-18T04:56:58.559Z,1.89
2024-01-18T04:57:58.549Z,1.88
2024-01-18T04:58:58.472Z,1.88
2024-01-18T05:01:07.882Z,1.31
2024-01-18T05:02:07.694Z,1.32
2024-01-18T05:03:08.833Z,1.57
2024-01-18T05:04:07.694Z,1.73
2024-01-18T05:05:07.796Z,1.83
2024-01-18T05:06:07.766Z,1.89
2024-01-18T05:07:07.811Z,1.94
2024-01-18T05:08:07.652Z,1.98
2024-01-18T05:09:07.699Z,2.00
2024-01-18T05:10:07.708Z,2.01
2024-01-18T05:11:07.836Z,2.02
2024-01-18T05:12:07.986Z,2.02
2024-01-18T05:13:07.576Z,2.03
2024-01-18T05:14:07.569Z,2.02
2024-01-18T05:15:07.619Z,2.02
2024-01-18T05:16:07.528Z,2.01
2024-01-18T05:17:07.602Z,1.99
2024-01-18T05:18:07.556Z,1.98
2024-01-18T05:19:07.623Z,1.97
2024-01-18T05:20:07.596Z,1.97
2024-01-18T05:21:07.568Z,1.96
2024-01-18T05:22:07.421Z,1.97
2024-01-18T05:23:07.434Z,1.96
2024-01-18T05:24:07.443Z,1.95
2024-01-18T05:25:07.565Z,1.94
2024-01-18T05:26:07.394Z,1.93
2024-01-18T05:27:07.516Z,1.93
2024-01-18T05:28:07.336Z,1.92
2024-01-18T05:29:07.381Z,1.92
2024-01-18T05:30:07.362Z,1.91
2024-01-18T05:31:07.397Z,1.90
2024-01-18T05:32:07.328Z,1.88
2024-01-18T05:33:07.352Z,1.85
2024-01-18T05:34:07.343Z,1.83
2024-01-18T05:35:07.317Z,1.82
2024-01-18T05:36:07.293Z,1.82
2024-01-18T05:37:07.330Z,1.83
2024-01-18T05:38:07.255Z,1.83
2024-01-18T05:39:07.273Z,1.83
2024-01-18T05:40:07.188Z,1.82
2024-01-18T05:41:07.268Z,1.83
2024-01-18T05:42:07.178Z,1.83
2024-01-18T05:43:07.185Z,1.84
2024-01-18T05:44:07.170Z,1.84
2024-01-18T05:45:07.234Z,1.83
2024-01-18T05:46:07.102Z,1.82
2024-01-18T05:47:07.205Z,1.80
2024-01-18T05:48:07.187Z,1.77
2024-01-18T05:49:07.179Z,1.76
2024-01-18T05:50:07.181Z,1.75
2024-01-18T05:51:07.346Z,1.76
2024-01-18T05:52:07.015Z,1.77
2024-01-18T05:53:07.038Z,1.78
2024-01-18T05:54:07.033Z,1.77
2024-01-18T05:55:07.059Z,1.77
2024-01-18T05:56:06.992Z,1.78
2024-01-18T05:57:07.143Z,1.79
2024-01-18T05:58:06.950Z,1.78
2024-01-18T05:59:06.980Z,1.76
2024-01-18T06:00:06.996Z,1.75
2024-01-18T06:01:07.077Z,1.74
2024-01-18T06:02:06.931Z,1.72
2024-01-18T06:03:06.986Z,1.70
2024-01-18T06:04:06.893Z,1.70
2024-01-18T06:05:08.927Z,1.70
2024-01-18T06:06:06.882Z,1.70
2024-01-18T06:07:07.085Z,1.70
2024-01-18T06:08:06.847Z,1.70
2024-01-18T06:09:06.853Z,1.72
2024-01-18T06:10:06.791Z,1.72
2024-01-18T06:11:07.895Z,1.72
2024-01-18T06:12:06.787Z,1.73
2024-01-18T06:13:06.778Z,1.74
2024-01-18T06:14:06.777Z,1.75
2024-01-18T06:15:06.816Z,1.75
2024-01-18T06:16:06.715Z,1.74
2024-01-18T06:17:06.806Z,1.73
2024-01-18T06:18:06.799Z,1.74
2024-01-18T06:19:06.814Z,1.75
2024-01-18T06:20:06.753Z,1.76
2024-01-18T06:21:06.760Z,1.77
2024-01-18T06:22:06.653Z,1.75
2024-01-18T06:23:06.653Z,1.74
2024-01-18T06:24:06.695Z,1.74
2024-01-18T06:25:06.667Z,1.73
2024-01-18T06:26:06.633Z,1.72
2024-01-18T06:27:06.727Z,1.71
2024-01-18T06:28:06.572Z,1.70
2024-01-18T06:29:06.588Z,1.69
2024-01-18T06:30:06.576Z,1.69
2024-01-18T06:31:06.619Z,1.69
2024-01-18T06:32:07.593Z,1.68
2024-01-18T06:33:06.661Z,1.68
2024-01-18T06:34:06.684Z,1.67
2024-01-18T06:35:06.580Z,1.67
2024-01-18T06:36:06.498Z,1.68
2024-01-18T06:37:06.532Z,1.68
2024-01-18T06:38:06.475Z,1.69
2024-01-18T06:39:06.490Z,1.68
2024-01-18T06:40:06.408Z,1.66
2024-01-18T06:41:06.464Z,1.66
2024-01-18T06:42:06.388Z,1.64
2024-01-18T06:43:07.414Z,1.66
2024-01-18T06:44:06.387Z,1.69
2024-01-18T06:45:06.444Z,1.70
2024-01-18T06:46:06.324Z,1.70
2024-01-18T06:47:08.096Z,1.71
2024-01-18T06:48:06.398Z,1.73
2024-01-18T06:49:06.432Z,1.73
2024-01-18T06:50:06.402Z,1.73
2024-01-18T06:51:06.373Z,1.73
2024-01-18T06:52:06.266Z,1.73
2024-01-18T06:53:06.350Z,1.72
2024-01-18T06:54:06.276Z,1.72
2024-01-18T06:55:06.263Z,1.74
2024-01-18T06:56:06.246Z,1.75
2024-01-18T06:57:06.314Z,1.77
2024-01-18T06:58:06.183Z,1.78
2024-01-18T06:59:06.196Z,1.77
2024-01-18T07:00:06.229Z,1.77
2024-01-18T07:01:06.360Z,1.77
2024-01-18T07:02:06.143Z,1.79
2024-01-18T07:03:06.277Z,1.80
2024-01-18T07:04:06.188Z,1.80
2024-01-18T07:05:06.157Z,1.80
2024-01-18T07:06:06.120Z,1.80
2024-01-18T07:07:06.183Z,1.80
2024-01-18T07:08:06.069Z,1.82
2024-01-18T07:09:06.098Z,1.83
2024-01-18T07:10:06.028Z,1.84
2024-01-18T07:11:06.144Z,1.86
2024-01-18T07:12:06.033Z,1.87
2024-01-18T07:13:06.087Z,1.87
2024-01-18T07:14:05.989Z,1.88
2024-01-18T07:15:07.070Z,1.86
2024-01-18T07:16:05.941Z,1.85
2024-01-18T07:17:06.012Z,1.86
2024-01-18T07:18:06.070Z,1.87
2024-01-18T07:19:06.138Z,1.87
2024-01-18T07:20:06.065Z,1.87
2024-01-18T07:21:05.983Z,1.87
2024-01-18T07:22:05.978Z,1.88
2024-01-18T07:23:05.952Z,1.87
2024-01-18T07:24:05.836Z,1.87
2024-01-18T07:25:08.834Z,1.87
2024-01-18T07:26:06.001Z,1.89
2024-01-18T07:27:05.917Z,1.90
2024-01-18T07:28:05.980Z,1.90
2024-01-18T07:29:05.805Z,1.90
2024-01-18T07:30:05.998Z,1.90
2024-01-18T07:31:05.901Z,1.89
2024-01-18T07:32:05.777Z,1.90
2024-01-18T07:33:05.945Z,1.91
2024-01-18T07:34:05.904Z,1.93
2024-01-18T07:35:05.788Z,1.95
2024-01-18T07:36:05.715Z,1.98
2024-01-18T07:37:07.362Z,2.01
2024-01-18T07:38:05.677Z,2.00
2024-01-18T07:39:05.691Z,1.98
2024-01-18T07:40:05.623Z,1.97
2024-01-18T07:41:05.723Z,1.96
2024-01-18T07:42:05.615Z,1.96
2024-01-18T07:43:05.690Z,1.95
2024-01-18T07:44:05.627Z,1.95
2024-01-18T07:45:05.670Z,1.94
2024-01-18T07:46:05.552Z,1.95
2024-01-18T07:47:05.629Z,1.94
2024-01-18T07:48:05.631Z,1.93
2024-01-18T07:49:05.629Z,1.95
2024-01-18T07:50:14.202Z,1.96
2024-01-18T07:51:06.552Z,1.98
2024-01-18T07:52:05.549Z,1.99
2024-01-18T07:53:05.481Z,2.00
2024-01-18T07:54:06.526Z,2.00
2024-01-18T07:55:05.450Z,2.00
2024-01-18T07:56:05.572Z,2.01
2024-01-18T07:57:05.409Z,2.03
2024-01-18T07:58:05.493Z,2.04
2024-01-18T07:59:05.393Z,2.06
2024-01-18T08:00:05.573Z,2.07
2024-01-18T08:01:05.432Z,2.09
2024-01-18T08:02:05.470Z,2.13
2024-01-18T08:03:05.542Z,2.16
2024-01-18T08:04:05.493Z,2.19
2024-01-18T08:05:05.308Z,2.22
2024-01-18T08:06:05.428Z,2.25
2024-01-18T08:07:05.334Z,2.28
2024-01-18T08:08:05.453Z,2.32
2024-01-18T08:09:05.264Z,2.33
2024-01-18T08:10:05.280Z,2.33
2024-01-18T08:11:05.225Z,2.32
2024-01-18T08:12:05.338Z,2.32
2024-01-18T08:13:05.192Z,2.32
2024-01-18T08:14:05.250Z,2.32
2024-01-18T08:15:05.254Z,2.32
2024-01-18T08:16:05.219Z,2.32
2024-01-18T08:17:05.141Z,2.32
2024-01-18T08:18:05.285Z,2.33
2024-01-18T08:19:05.240Z,2.34
2024-01-18T08:20:05.754Z,2.35
2024-01-18T08:21:08.395Z,2.35
2024-01-18T08:22:05.980Z,2.34
2024-01-18T08:23:05.502Z,2.34
2024-01-18T08:24:05.074Z,2.34
2024-01-18T08:25:05.073Z,2.35
2024-01-18T08:26:05.059Z,2.36
2024-01-18T08:27:05.123Z,2.36
2024-01-18T08:28:04.993Z,2.36
2024-01-18T08:29:05.009Z,2.37
2024-01-18T08:30:05.039Z,2.38
2024-01-18T08:31:05.102Z,2.38
2024-01-18T08:32:04.979Z,2.39
2024-01-18T08:33:05.150Z,2.42
2024-01-18T08:34:04.995Z,2.47
2024-01-18T08:35:04.937Z,2.48
2024-01-18T08:36:04.920Z,2.48
2024-01-18T08:37:05.092Z,2.50
2024-01-18T08:38:04.897Z,2.52
2024-01-18T08:39:05.045Z,2.54
2024-01-18T08:40:04.853Z,2.54
2024-01-18T08:41:04.884Z,2.54
2024-01-18T08:42:04.858Z,2.56
2024-01-18T08:43:04.901Z,2.60
2024-01-18T08:44:04.808Z,2.62
2024-01-18T08:45:04.812Z,2.64
2024-01-18T08:46:04.776Z,2.65
2024-01-18T08:47:04.820Z,2.66
2024-01-18T08:48:04.853Z,2.69
2024-01-18T08:49:04.926Z,2.73
2024-01-18T08:50:04.796Z,2.76
2024-01-18T08:51:04.983Z,2.77
2024-01-18T08:52:04.823Z,2.78
2024-01-18T08:53:04.778Z,2.79
2024-01-18T08:54:04.693Z,2.80
2024-01-18T08:55:04.678Z,2.80
2024-01-18T08:56:04.771Z,2.80
2024-01-18T08:57:04.771Z,2.80
2024-01-18T08:58:04.628Z,2.81
2024-01-18T08:59:04.725Z,2.83
2024-01-18T09:00:04.712Z,2.84
2024-01-18T09:01:04.753Z,2.85
2024-01-18T09:02:13.752Z,2.85
2024-01-18T09:03:05.638Z,2.86
2024-01-18T09:04:04.731Z,2.86
2024-01-18T09:05:04.663Z,2.87
2024-01-18T09:06:04.565Z,2.88
2024-01-18T09:07:04.515Z,2.90
2024-01-18T09:08:07.127Z,2.91
2024-01-18T09:09:04.591Z,2.92
2024-01-18T09:10:04.481Z,2.92
2024-01-18T09:11:04.452Z,2.93
2024-01-18T09:12:04.573Z,2.94
2024-01-18T09:13:04.421Z,2.94
2024-01-18T09:14:04.475Z,2.95
2024-01-18T09:15:04.429Z,2.96
2024-01-18T09:16:04.417Z,2.97
2024-01-18T09:17:04.368Z,2.98
2024-01-18T09:18:04.573Z,2.98
2024-01-18T09:19:13.522Z,2.98
2024-01-18T09:20:05.440Z,2.98
2024-01-18T09:21:04.388Z,2.99
2024-01-18T09:22:04.314Z,2.99
2024-01-18T09:23:12.070Z,3.00
2024-01-18T09:24:05.322Z,3.00
2024-01-18T09:25:04.390Z,3.00
2024-01-18T09:26:04.283Z,3.01
2024-01-18T09:27:04.341Z,3.02
2024-01-18T09:28:04.233Z,3.02
2024-01-18T09:29:04.321Z,3.02
2024-01-18T09:30:04.386Z,3.03
2024-01-18T09:31:04.340Z,3.03
2024-01-18T09:32:04.194Z,3.03
2024-01-18T09:33:04.261Z,3.04
2024-01-18T09:34:04.152Z,3.05
2024-01-18T09:35:04.276Z,3.06
2024-01-18T09:36:04.126Z,3.07
2024-01-18T09:37:04.270Z,3.08
2024-01-18T09:38:04.114Z,3.08
2024-01-18T09:39:04.212Z,3.10
2024-01-18T09:40:04.078Z,3.11
2024-01-18T09:41:04.090Z,3.13
2024-01-18T09:42:04.110Z,3.15
2024-01-18T09:43:04.108Z,3.16
2024-01-18T09:44:04.041Z,3.18
2024-01-18T09:45:04.136Z,3.20
2024-01-18T09:46:03.998Z,3.21
2024-01-18T09:47:04.032Z,3.23
2024-01-18T09:48:03.993Z,3.25
2024-01-18T09:49:04.982Z,3.27
2024-01-18T09:50:04.011Z,3.28
2024-01-18T09:51:03.957Z,3.29
2024-01-18T09:52:03.932Z,3.31
2024-01-18T09:53:03.974Z,3.32
2024-01-18T09:54:03.894Z,3.34
2024-01-18T09:55:04.019Z,3.36
2024-01-18T09:56:03.891Z,3.36
2024-01-18T09:57:03.917Z,3.36
2024-01-18T09:58:03.849Z,3.36
2024-01-18T09:59:03.917Z,3.35
2024-01-18T10:00:05.454Z,3.34
2024-01-18T10:01:03.888Z,3.34
2024-01-18T10:02:03.806Z,3.35
2024-01-18T10:03:03.851Z,3.35
2024-01-18T10:04:03.770Z,3.36
2024-01-18T10:05:03.902Z,3.37
2024-01-18T10:06:03.843Z,3.39
2024-01-18T10:07:05.267Z,3.43
2024-01-18T10:08:03.933Z,3.46
2024-01-18T10:09:03.793Z,3.48
2024-01-18T10:10:03.693Z,3.50
2024-01-18T10:11:03.702Z,3.52
2024-01-18T10:12:03.671Z,3.54
2024-01-18T10:13:03.806Z,3.58
2024-01-18T10:14:03.674Z,3.61
2024-01-18T10:15:03.749Z,3.64
2024-01-18T10:16:03.629Z,3.68
2024-01-18T10:17:03.664Z,3.70
2024-01-18T10:18:03.612Z,3.71
2024-01-18T10:19:03.849Z,3.72
2024-01-18T10:20:03.628Z,3.73
2024-01-18T10:21:03.565Z,3.76
2024-01-18T10:22:03.530Z,3.78
2024-01-18T10:23:04.481Z,3.81
2024-01-18T10:24:03.509Z,3.85
2024-01-18T10:25:03.679Z,3.88
2024-01-18T10:26:03.556Z,3.91
2024-01-18T10:27:03.501Z,3.93
2024-01-18T10:28:03.450Z,3.94
2024-01-18T10:29:04.712Z,3.95
2024-01-18T10:30:03.437Z,3.98
2024-01-18T10:31:03.561Z,4.00
2024-01-18T10:32:03.429Z,4.02
2024-01-18T10:33:03.503Z,4.03
2024-01-18T10:34:03.426Z,4.05
2024-01-18T10:35:05.087Z,4.07
2024-01-18T10:36:03.370Z,4.08
2024-01-18T10:37:03.382Z,4.10
2024-01-18T10:38:03.340Z,4.13
2024-01-18T10:39:03.384Z,4.16
2024-01-18T10:40:03.389Z,4.19
2024-01-18T10:41:03.305Z,4.20
2024-01-18T10:42:03.264Z,4.21
2024-01-18T10:43:03.313Z,4.23
2024-01-18T10:44:03.251Z,4.24
2024-01-18T10:45:04.257Z,4.26
2024-01-18T10:46:03.278Z,4.27
2024-01-18T10:47:03.248Z,4.28
2024-01-18T10:48:03.277Z,4.31
2024-01-18T10:49:03.295Z,4.34
2024-01-18T10:50:03.623Z,4.36
2024-01-18T10:51:03.398Z,4.39
2024-01-18T10:52:03.156Z,4.42
2024-01-18T10:53:03.212Z,4.43
2024-01-18T10:54:04.761Z,4.43
2024-01-18T10:55:08.716Z,4.44
2024-01-18T10:56:04.224Z,4.45
2024-01-18T10:57:03.145Z,4.46
2024-01-18T10:58:03.067Z,4.48
2024-01-18T10:59:03.134Z,4.50
2024-01-18T11:00:03.024Z,4.53
2024-01-18T11:01:03.190Z,4.55
2024-01-18T11:02:03.042Z,4.57
2024-01-18T11:03:04.097Z,4.58
2024-01-18T11:04:03.038Z,4.59
2024-01-18T11:05:03.157Z,4.61
2024-01-18T11:06:03.087Z,4.64
2024-01-18T11:07:03.103Z,4.66
2024-01-18T11:08:02.944Z,4.67
2024-01-18T11:09:03.010Z,4.67
2024-01-18T11:10:02.913Z,4.65
2024-01-18T11:11:02.910Z,4.63
2024-01-18T11:12:02.870Z,4.64
2024-01-18T11:13:02.944Z,4.66
2024-01-18T11:14:02.871Z,4.69
2024-01-18T11:15:02.933Z,4.73
2024-01-18T11:16:02.932Z,4.78
2024-01-18T11:17:02.852Z,4.82
2024-01-18T11:18:02.841Z,4.85
2024-01-18T11:19:02.952Z,4.85
2024-01-18T11:20:03.083Z,4.86
2024-01-18T11:21:02.779Z,4.87
2024-01-18T11:22:02.755Z,4.89
2024-01-18T11:23:02.900Z,4.92
2024-01-18T11:24:02.727Z,4.94
2024-01-18T11:25:02.923Z,4.98
2024-01-18T11:26:02.743Z,5.02
2024-01-18T11:27:02.724Z,5.05
2024-01-18T11:28:02.794Z,5.08
2024-01-18T11:29:02.750Z,5.12
2024-01-18T11:30:02.675Z,5.17
2024-01-18T11:31:02.828Z,5.23
2024-01-18T11:32:02.624Z,5.27
2024-01-18T11:33:02.787Z,5.30
2024-01-18T11:34:02.642Z,5.32
2024-01-18T11:35:02.803Z,5.35
2024-01-18T11:36:02.776Z,5.38
2024-01-18T11:37:02.652Z,5.41
2024-01-18T11:38:02.633Z,5.43
2024-01-18T11:39:02.685Z,5.45
2024-01-18T11:40:02.517Z,5.46
2024-01-18T11:41:02.534Z,5.47
2024-01-18T11:42:02.493Z,5.47
2024-01-18T11:43:02.583Z,5.46
2024-01-18T11:44:02.482Z,5.46
2024-01-18T11:45:02.530Z,5.46
2024-01-18T11:46:02.571Z,5.46
2024-01-18T11:47:02.444Z,5.46
2024-01-18T11:48:02.415Z,5.47
2024-01-18T11:49:02.530Z,5.48
2024-01-18T11:50:02.563Z,5.49
2024-01-18T11:51:02.412Z,5.49
2024-01-18T11:52:02.348Z,5.51
2024-01-18T11:53:04.016Z,5.52
2024-01-18T11:54:02.319Z,5.52
2024-01-18T11:55:02.525Z,5.53
2024-01-18T11:56:02.304Z,5.55
2024-01-18T11:57:02.312Z,5.57
2024-01-18T11:58:02.268Z,5.59
2024-01-18T11:59:05.665Z,5.60
2024-01-18T12:00:02.263Z,5.61
2024-01-18T12:01:02.350Z,5.62
2024-01-18T12:02:02.235Z,5.62
2024-01-18T12:03:02.265Z,5.63
2024-01-18T12:04:02.486Z,5.64
2024-01-18T12:05:02.399Z,5.64
2024-01-18T12:06:02.175Z,5.66
2024-01-18T12:07:02.259Z,5.66
2024-01-18T12:08:02.200Z,5.66
2024-01-18T12:09:02.225Z,5.66
2024-01-18T12:10:02.171Z,5.67
2024-01-18T12:11:04.045Z,5.69
2024-01-18T12:12:02.089Z,5.71
2024-01-18T12:13:02.215Z,5.73
2024-01-18T12:14:02.097Z,5.74
2024-01-18T12:15:25.143Z,5.76
2024-01-18T12:16:02.221Z,5.78
2024-01-18T12:17:02.073Z,5.80
2024-01-18T12:18:02.019Z,5.81
2024-01-18T12:19:02.085Z,5.83
2024-01-18T12:20:02.040Z,5.85
2024-01-18T12:21:02.096Z,5.86
2024-01-18T12:22:02.080Z,5.83
2024-01-18T12:23:01.991Z,5.78
2024-01-18T12:24:01.938Z,5.72
2024-01-18T12:25:04.752Z,5.65
2024-01-18T12:26:01.938Z,5.61
2024-01-18T12:27:01.931Z,5.57
2024-01-18T12:28:01.989Z,5.54
2024-01-18T12:29:01.989Z,5.50
2024-01-18T12:30:01.854Z,5.48
2024-01-18T12:31:02.045Z,5.47
2024-01-18T12:32:01.854Z,5.47
2024-01-18T12:33:02.098Z,5.47
2024-01-18T12:34:02.119Z,5.48
2024-01-18T12:35:01.989Z,5.49
2024-01-18T12:36:03.258Z,5.51
2024-01-18T12:37:02.889Z,5.55
2024-01-18T12:38:01.961Z,5.60
2024-01-18T12:39:01.820Z,5.66
2024-01-18T12:40:01.839Z,5.73
2024-01-18T12:41:01.840Z,5.79
2024-01-18T12:42:01.770Z,5.82
2024-01-18T12:43:01.774Z,5.86
2024-01-18T12:44:01.725Z,5.91
2024-01-18T12:45:01.745Z,5.94
2024-01-18T12:46:01.703Z,5.99
2024-01-18T12:47:05.121Z,6.03
2024-01-18T12:48:01.807Z,6.07
2024-01-18T12:49:01.766Z,6.09
2024-01-18T12:50:02.014Z,6.12
2024-01-18T12:51:01.792Z,6.16
2024-01-18T12:52:01.635Z,6.18
2024-01-18T12:53:04.005Z,6.21
2024-01-18T12:54:01.553Z,6.23
2024-01-18T12:55:02.798Z,6.24
2024-01-18T12:56:01.699Z,6.28
2024-01-18T12:57:01.663Z,6.32
2024-01-18T12:58:01.595Z,6.36
2024-01-18T12:59:01.538Z,6.42
2024-01-18T13:00:01.545Z,6.46
2024-01-18T13:01:01.845Z,6.49
2024-01-18T13:02:01.555Z,6.51
2024-01-18T13:03:01.468Z,6.51
2024-01-18T13:04:01.437Z,6.53
2024-01-18T13:05:01.625Z,6.54
2024-01-18T13:06:01.372Z,6.55
2024-01-18T13:07:03.369Z,6.56
2024-01-18T13:08:01.459Z,6.56
2024-01-18T13:09:03.984Z,6.56
2024-01-18T13:10:01.368Z,6.58
2024-01-18T13:11:01.433Z,6.61
2024-01-18T13:12:01.304Z,6.64
2024-01-18T13:13:01.371Z,6.66
2024-01-18T13:14:01.306Z,6.69
2024-01-18T13:15:01.364Z,6.71
2024-01-18T13:16:01.344Z,6.73
2024-01-18T13:17:01.360Z,6.71
2024-01-18T13:18:01.237Z,6.72
2024-01-18T13:19:01.327Z,6.73